sensor_id;sensor_type;location;lat;lon;timestamp;P1;durP1;ratioP1;P2;durP2;ratioP2
47529;SDS011;33272;51.922;7.730;2023-10-19T00:02:04;8.47;;;7.10;;
47529;SDS011;33272;51.922;7.730;2023-10-19T00:04:32;7.47;;;6.67;;
47529;SDS011;33272;51.922;7.730;2023-10-19T00:07:00;11.17;;;7.63;;
47529;SDS011;33272;51.922;7.730;2023-10-19T00:09:31;8.30;;;6.33;;
47529;SDS011;33272;51.922;7.730;2023-10-19T00:12:02;7.53;;;6.63;;
47529;SDS011;33272;51.922;7.730;2023-10-19T00:14:35;7.90;;;6.97;;
47529;SDS011;33272;51.922;7.730;2023-10-19T00:17:01;9.63;;;6.90;;
47529;SDS011;33272;51.922;7.730;2023-10-19T00:19:32;10.57;;;7.00;;
47529;SDS011;33272;51.922;7.730;2023-10-19T00:22:07;7.57;;;6.77;;
47529;SDS011;33272;51.922;7.730;2023-10-19T00:24:39;8.00;;;7.20;;
47529;SDS011;33272;51.922;7.730;2023-10-19T00:27:06;9.87;;;6.63;;
47529;SDS011;33272;51.922;7.730;2023-10-19T00:29:42;8.00;;;7.07;;
47529;SDS011;33272;51.922;7.730;2023-10-19T00:32:14;11.60;;;6.97;;
47529;SDS011;33272;51.922;7.730;2023-10-19T00:34:44;9.27;;;7.50;;
47529;SDS011;33272;51.922;7.730;2023-10-19T00:37:17;8.43;;;7.20;;
47529;SDS011;33272;51.922;7.730;2023-10-19T00:39:47;8.33;;;6.80;;
47529;SDS011;33272;51.922;7.730;2023-10-19T00:42:19;8.47;;;7.20;;
47529;SDS011;33272;51.922;7.730;2023-10-19T00:44:51;7.97;;;6.93;;
47529;SDS011;33272;51.922;7.730;2023-10-19T00:47:26;8.30;;;7.23;;
47529;SDS011;33272;51.922;7.730;2023-10-19T00:50:00;8.87;;;7.03;;
47529;SDS011;33272;51.922;7.730;2023-10-19T00:52:30;8.63;;;7.33;;
47529;SDS011;33272;51.922;7.730;2023-10-19T00:55:07;10.50;;;7.60;;
47529;SDS011;33272;51.922;7.730;2023-10-19T00:57:37;11.67;;;7.77;;
47529;SDS011;33272;51.922;7.730;2023-10-19T01:00:12;8.50;;;7.60;;
47529;SDS011;33272;51.922;7.730;2023-10-19T01:02:47;8.97;;;8.07;;
47529;SDS011;33272;51.922;7.730;2023-10-19T01:05:16;9.83;;;8.13;;
47529;SDS011;33272;51.922;7.730;2023-10-19T01:07:47;11.47;;;8.03;;
47529;SDS011;33272;51.922;7.730;2023-10-19T01:10:21;8.97;;;8.03;;
47529;SDS011;33272;51.922;7.730;2023-10-19T01:12:49;9.47;;;8.00;;
47529;SDS011;33272;51.922;7.730;2023-10-19T01:15:19;10.30;;;8.93;;
47529;SDS011;33272;51.922;7.730;2023-10-19T01:17:55;10.67;;;8.13;;
47529;SDS011;33272;51.922;7.730;2023-10-19T01:20:25;10.93;;;9.13;;
47529;SDS011;33272;51.922;7.730;2023-10-19T01:23:14;11.20;;;8.53;;
47529;SDS011;33272;51.922;7.730;2023-10-19T01:25:51;10.27;;;8.60;;
47529;SDS011;33272;51.922;7.730;2023-10-19T01:28:31;8.73;;;7.77;;
47529;SDS011;33272;51.922;7.730;2023-10-19T01:31:13;10.70;;;8.90;;
47529;SDS011;33272;51.922;7.730;2023-10-19T01:33:47;11.43;;;8.63;;
47529;SDS011;33272;51.922;7.730;2023-10-19T01:36:15;10.63;;;9.00;;
47529;SDS011;33272;51.922;7.730;2023-10-19T01:38:51;9.80;;;8.40;;
47529;SDS011;33272;51.922;7.730;2023-10-19T01:41:20;12.27;;;8.70;;
47529;SDS011;33272;51.922;7.730;2023-10-19T01:43:50;10.17;;;8.97;;
47529;SDS011;33272;51.922;7.730;2023-10-19T01:46:21;11.03;;;9.63;;
47529;SDS011;33272;51.922;7.730;2023-10-19T01:48:49;9.83;;;8.70;;
47529;SDS011;33272;51.922;7.730;2023-10-19T01:51:21;10.73;;;8.57;;
47529;SDS011;33272;51.922;7.730;2023-10-19T01:53:48;9.63;;;8.47;;
47529;SDS011;33272;51.922;7.730;2023-10-19T01:56:17;10.83;;;8.47;;
47529;SDS011;33272;51.922;7.730;2023-10-19T01:58:44;12.83;;;9.00;;
47529;SDS011;33272;51.922;7.730;2023-10-19T02:01:13;12.03;;;9.47;;
47529;SDS011;33272;51.922;7.730;2023-10-19T02:03:45;11.47;;;9.10;;
47529;SDS011;33272;51.922;7.730;2023-10-19T02:06:18;10.40;;;9.27;;
47529;SDS011;33272;51.922;7.730;2023-10-19T02:08:45;11.70;;;10.03;;
47529;SDS011;33272;51.922;7.730;2023-10-19T02:11:18;10.60;;;8.93;;
47529;SDS011;33272;51.922;7.730;2023-10-19T02:13:47;9.77;;;8.73;;
47529;SDS011;33272;51.922;7.730;2023-10-19T02:16:15;11.83;;;9.10;;
47529;SDS011;33272;51.922;7.730;2023-10-19T02:18:47;10.43;;;9.33;;
47529;SDS011;33272;51.922;7.730;2023-10-19T02:21:15;11.90;;;9.10;;
47529;SDS011;33272;51.922;7.730;2023-10-19T02:23:47;10.43;;;8.87;;
47529;SDS011;33272;51.922;7.730;2023-10-19T02:26:17;9.43;;;8.40;;
47529;SDS011;33272;51.922;7.730;2023-10-19T02:28:44;11.13;;;9.93;;
47529;SDS011;33272;51.922;7.730;2023-10-19T02:31:12;11.87;;;9.53;;
47529;SDS011;33272;51.922;7.730;2023-10-19T02:33:43;12.40;;;9.80;;
47529;SDS011;33272;51.922;7.730;2023-10-19T02:43:29;11.93;;;9.40;;
47529;SDS011;33272;51.922;7.730;2023-10-19T02:45:57;11.53;;;10.33;;
47529;SDS011;33272;51.922;7.730;2023-10-19T02:48:27;10.93;;;9.73;;
47529;SDS011;33272;51.922;7.730;2023-10-19T02:50:53;12.13;;;10.23;;
47529;SDS011;33272;51.922;7.730;2023-10-19T02:53:20;9.93;;;8.93;;
47529;SDS011;33272;51.922;7.730;2023-10-19T02:55:47;11.87;;;9.17;;
47529;SDS011;33272;51.922;7.730;2023-10-19T02:58:16;11.17;;;9.77;;
47529;SDS011;33272;51.922;7.730;2023-10-19T03:00:44;10.57;;;9.47;;
47529;SDS011;33272;51.922;7.730;2023-10-19T03:03:11;11.63;;;9.27;;
47529;SDS011;33272;51.922;7.730;2023-10-19T03:05:42;11.80;;;10.00;;
47529;SDS011;33272;51.922;7.730;2023-10-19T03:08:08;11.80;;;10.50;;
47529;SDS011;33272;51.922;7.730;2023-10-19T03:10:35;11.23;;;9.43;;
47529;SDS011;33272;51.922;7.730;2023-10-19T03:13:07;12.87;;;10.30;;
47529;SDS011;33272;51.922;7.730;2023-10-19T03:15:34;11.43;;;10.07;;
47529;SDS011;33272;51.922;7.730;2023-10-19T03:18:02;11.63;;;9.17;;
47529;SDS011;33272;51.922;7.730;2023-10-19T03:20:29;12.37;;;10.33;;
47529;SDS011;33272;51.922;7.730;2023-10-19T03:22:58;12.63;;;10.23;;
47529;SDS011;33272;51.922;7.730;2023-10-19T03:25:27;11.17;;;9.40;;
47529;SDS011;33272;51.922;7.730;2023-10-19T03:28:11;13.57;;;9.57;;
47529;SDS011;33272;51.922;7.730;2023-10-19T03:30:41;12.00;;;9.33;;
47529;SDS011;33272;51.922;7.730;2023-10-19T03:33:10;11.53;;;9.93;;
47529;SDS011;33272;51.922;7.730;2023-10-19T03:35:37;12.33;;;9.57;;
47529;SDS011;33272;51.922;7.730;2023-10-19T03:38:06;11.60;;;9.93;;
47529;SDS011;33272;51.922;7.730;2023-10-19T03:40:39;13.20;;;9.90;;
47529;SDS011;33272;51.922;7.730;2023-10-19T03:43:11;11.00;;;8.97;;
47529;SDS011;33272;51.922;7.730;2023-10-19T03:45:43;12.57;;;9.53;;
47529;SDS011;33272;51.922;7.730;2023-10-19T03:48:17;11.50;;;8.97;;
47529;SDS011;33272;51.922;7.730;2023-10-19T03:50:51;10.53;;;9.40;;
47529;SDS011;33272;51.922;7.730;2023-10-19T03:53:20;10.00;;;8.77;;
47529;SDS011;33272;51.922;7.730;2023-10-19T03:55:47;11.17;;;8.87;;
47529;SDS011;33272;51.922;7.730;2023-10-19T03:58:17;11.17;;;9.33;;
47529;SDS011;33272;51.922;7.730;2023-10-19T04:00:46;10.83;;;8.87;;
47529;SDS011;33272;51.922;7.730;2023-10-19T04:03:15;11.53;;;9.30;;
47529;SDS011;33272;51.922;7.730;2023-10-19T04:05:44;9.33;;;8.20;;
47529;SDS011;33272;51.922;7.730;2023-10-19T04:08:14;12.03;;;8.87;;
47529;SDS011;33272;51.922;7.730;2023-10-19T04:10:45;10.53;;;9.00;;
47529;SDS011;33272;51.922;7.730;2023-10-19T04:13:33;9.50;;;8.50;;
47529;SDS011;33272;51.922;7.730;2023-10-19T04:16:01;9.37;;;8.37;;
47529;SDS011;33272;51.922;7.730;2023-10-19T04:18:28;9.23;;;8.27;;
47529;SDS011;33272;51.922;7.730;2023-10-19T04:20:57;9.30;;;7.87;;
47529;SDS011;33272;51.922;7.730;2023-10-19T04:23:24;9.87;;;8.43;;
47529;SDS011;33272;51.922;7.730;2023-10-19T04:25:53;13.23;;;9.37;;
47529;SDS011;33272;51.922;7.730;2023-10-19T04:28:28;9.97;;;8.70;;
47529;SDS011;33272;51.922;7.730;2023-10-19T04:31:03;10.23;;;8.30;;
47529;SDS011;33272;51.922;7.730;2023-10-19T04:33:31;11.87;;;8.90;;
47529;SDS011;33272;51.922;7.730;2023-10-19T04:36:01;9.63;;;8.63;;
47529;SDS011;33272;51.922;7.730;2023-10-19T04:38:28;9.63;;;8.40;;
47529;SDS011;33272;51.922;7.730;2023-10-19T04:41:04;10.43;;;8.13;;
47529;SDS011;33272;51.922;7.730;2023-10-19T04:43:35;9.27;;;8.37;;
47529;SDS011;33272;51.922;7.730;2023-10-19T04:46:04;8.90;;;8.00;;
47529;SDS011;33272;51.922;7.730;2023-10-19T04:48:35;10.37;;;7.93;;
47529;SDS011;33272;51.922;7.730;2023-10-19T04:51:06;9.73;;;8.73;;
47529;SDS011;33272;51.922;7.730;2023-10-19T04:53:35;11.30;;;7.80;;
47529;SDS011;33272;51.922;7.730;2023-10-19T04:56:02;9.17;;;8.23;;
47529;SDS011;33272;51.922;7.730;2023-10-19T04:58:31;8.90;;;8.00;;
47529;SDS011;33272;51.922;7.730;2023-10-19T05:00:58;9.40;;;8.40;;
47529;SDS011;33272;51.922;7.730;2023-10-19T05:03:26;9.30;;;8.30;;
47529;SDS011;33272;51.922;7.730;2023-10-19T05:05:54;8.17;;;7.30;;
47529;SDS011;33272;51.922;7.730;2023-10-19T05:08:24;8.73;;;7.77;;
47529;SDS011;33272;51.922;7.730;2023-10-19T05:10:53;10.27;;;7.97;;
47529;SDS011;33272;51.922;7.730;2023-10-19T05:13:21;8.83;;;7.93;;
47529;SDS011;33272;51.922;7.730;2023-10-19T05:15:50;9.27;;;7.33;;
47529;SDS011;33272;51.922;7.730;2023-10-19T05:18:18;9.43;;;7.93;;
47529;SDS011;33272;51.922;7.730;2023-10-19T05:20:45;8.47;;;7.30;;
47529;SDS011;33272;51.922;7.730;2023-10-19T05:23:13;8.33;;;7.53;;
47529;SDS011;33272;51.922;7.730;2023-10-19T05:25:41;9.37;;;8.43;;
47529;SDS011;33272;51.922;7.730;2023-10-19T05:28:09;10.30;;;8.53;;
47529;SDS011;33272;51.922;7.730;2023-10-19T05:30:39;9.60;;;8.07;;
47529;SDS011;33272;51.922;7.730;2023-10-19T05:33:06;9.03;;;8.13;;
47529;SDS011;33272;51.922;7.730;2023-10-19T05:35:33;8.77;;;7.73;;
47529;SDS011;33272;51.922;7.730;2023-10-19T05:38:05;11.30;;;8.40;;
47529;SDS011;33272;51.922;7.730;2023-10-19T05:40:32;8.50;;;7.67;;
47529;SDS011;33272;51.922;7.730;2023-10-19T05:43:02;8.67;;;7.77;;
47529;SDS011;33272;51.922;7.730;2023-10-19T05:45:29;8.47;;;7.53;;
47529;SDS011;33272;51.922;7.730;2023-10-19T05:47:57;8.40;;;7.27;;
47529;SDS011;33272;51.922;7.730;2023-10-19T05:50:25;8.07;;;7.27;;
47529;SDS011;33272;51.922;7.730;2023-10-19T05:52:53;14.00;;;9.23;;
47529;SDS011;33272;51.922;7.730;2023-10-19T05:55:20;9.53;;;8.53;;
47529;SDS011;33272;51.922;7.730;2023-10-19T05:57:47;9.03;;;8.13;;
47529;SDS011;33272;51.922;7.730;2023-10-19T06:00:16;10.13;;;8.00;;
47529;SDS011;33272;51.922;7.730;2023-10-19T06:02:46;8.83;;;7.93;;
47529;SDS011;33272;51.922;7.730;2023-10-19T06:05:15;10.03;;;7.57;;
47529;SDS011;33272;51.922;7.730;2023-10-19T06:07:43;9.90;;;7.97;;
47529;SDS011;33272;51.922;7.730;2023-10-19T06:10:12;9.63;;;8.63;;
47529;SDS011;33272;51.922;7.730;2023-10-19T06:12:42;10.40;;;7.83;;
47529;SDS011;33272;51.922;7.730;2023-10-19T06:15:10;10.10;;;8.23;;
47529;SDS011;33272;51.922;7.730;2023-10-19T06:17:40;9.73;;;7.80;;
47529;SDS011;33272;51.922;7.730;2023-10-19T06:20:11;8.43;;;7.23;;
47529;SDS011;33272;51.922;7.730;2023-10-19T06:22:49;8.23;;;7.37;;
47529;SDS011;33272;51.922;7.730;2023-10-19T06:25:17;8.80;;;7.90;;
47529;SDS011;33272;51.922;7.730;2023-10-19T06:27:46;9.23;;;8.30;;
47529;SDS011;33272;51.922;7.730;2023-10-19T06:30:14;10.33;;;8.43;;
47529;SDS011;33272;51.922;7.730;2023-10-19T06:32:48;9.80;;;8.20;;
47529;SDS011;33272;51.922;7.730;2023-10-19T06:35:16;9.57;;;8.57;;
47529;SDS011;33272;51.922;7.730;2023-10-19T06:37:46;9.67;;;7.77;;
47529;SDS011;33272;51.922;7.730;2023-10-19T06:40:14;8.77;;;7.83;;
47529;SDS011;33272;51.922;7.730;2023-10-19T06:42:43;9.63;;;8.17;;
47529;SDS011;33272;51.922;7.730;2023-10-19T06:45:11;7.63;;;6.83;;
47529;SDS011;33272;51.922;7.730;2023-10-19T06:47:39;9.13;;;8.13;;
47529;SDS011;33272;51.922;7.730;2023-10-19T06:50:09;9.30;;;7.50;;
47529;SDS011;33272;51.922;7.730;2023-10-19T06:52:36;8.00;;;7.10;;
47529;SDS011;33272;51.922;7.730;2023-10-19T06:55:04;8.97;;;7.70;;
47529;SDS011;33272;51.922;7.730;2023-10-19T06:57:38;8.63;;;7.53;;
47529;SDS011;33272;51.922;7.730;2023-10-19T07:00:08;8.20;;;7.40;;
47529;SDS011;33272;51.922;7.730;2023-10-19T07:02:40;8.77;;;7.70;;
47529;SDS011;33272;51.922;7.730;2023-10-19T07:05:10;8.60;;;7.70;;
47529;SDS011;33272;51.922;7.730;2023-10-19T07:07:39;8.33;;;6.77;;
47529;SDS011;33272;51.922;7.730;2023-10-19T07:10:07;8.90;;;8.00;;
47529;SDS011;33272;51.922;7.730;2023-10-19T07:12:37;10.07;;;7.93;;
47529;SDS011;33272;51.922;7.730;2023-10-19T07:15:06;10.87;;;7.93;;
47529;SDS011;33272;51.922;7.730;2023-10-19T07:17:34;9.13;;;7.40;;
47529;SDS011;33272;51.922;7.730;2023-10-19T07:20:03;10.40;;;7.70;;
47529;SDS011;33272;51.922;7.730;2023-10-19T07:22:34;9.77;;;8.10;;
47529;SDS011;33272;51.922;7.730;2023-10-19T07:25:03;9.40;;;7.80;;
47529;SDS011;33272;51.922;7.730;2023-10-19T07:27:33;7.73;;;6.93;;
47529;SDS011;33272;51.922;7.730;2023-10-19T07:30:00;10.00;;;7.77;;
47529;SDS011;33272;51.922;7.730;2023-10-19T07:32:30;8.27;;;6.33;;
47529;SDS011;33272;51.922;7.730;2023-10-19T07:34:58;8.00;;;6.90;;
47529;SDS011;33272;51.922;7.730;2023-10-19T07:37:25;6.90;;;6.20;;
47529;SDS011;33272;51.922;7.730;2023-10-19T07:39:54;9.60;;;5.97;;
47529;SDS011;33272;51.922;7.730;2023-10-19T07:42:22;5.97;;;5.40;;
47529;SDS011;33272;51.922;7.730;2023-10-19T07:44:49;7.53;;;6.00;;
47529;SDS011;33272;51.922;7.730;2023-10-19T07:47:16;8.07;;;5.90;;
47529;SDS011;33272;51.922;7.730;2023-10-19T07:49:43;8.00;;;6.07;;
47529;SDS011;33272;51.922;7.730;2023-10-19T07:52:13;6.83;;;5.93;;
47529;SDS011;33272;51.922;7.730;2023-10-19T07:54:40;6.07;;;4.77;;
47529;SDS011;33272;51.922;7.730;2023-10-19T07:57:08;6.47;;;5.30;;
47529;SDS011;33272;51.922;7.730;2023-10-19T07:59:37;7.90;;;5.10;;
47529;SDS011;33272;51.922;7.730;2023-10-19T08:02:08;7.57;;;4.47;;
47529;SDS011;33272;51.922;7.730;2023-10-19T08:04:35;5.83;;;4.50;;
47529;SDS011;33272;51.922;7.730;2023-10-19T08:07:02;5.97;;;4.70;;
47529;SDS011;33272;51.922;7.730;2023-10-19T08:09:29;6.33;;;4.40;;
47529;SDS011;33272;51.922;7.730;2023-10-19T08:12:00;5.40;;;4.10;;
47529;SDS011;33272;51.922;7.730;2023-10-19T08:14:32;6.20;;;4.13;;
47529;SDS011;33272;51.922;7.730;2023-10-19T08:16:59;6.90;;;4.07;;
47529;SDS011;33272;51.922;7.730;2023-10-19T08:19:27;4.60;;;3.83;;
47529;SDS011;33272;51.922;7.730;2023-10-19T08:21:56;8.33;;;4.47;;
47529;SDS011;33272;51.922;7.730;2023-10-19T08:24:23;6.27;;;4.10;;
47529;SDS011;33272;51.922;7.730;2023-10-19T08:26:54;5.93;;;4.00;;
47529;SDS011;33272;51.922;7.730;2023-10-19T08:29:21;7.50;;;3.87;;
47529;SDS011;33272;51.922;7.730;2023-10-19T08:31:50;5.97;;;4.47;;
47529;SDS011;33272;51.922;7.730;2023-10-19T08:34:17;5.90;;;4.17;;
47529;SDS011;33272;51.922;7.730;2023-10-19T08:36:45;5.40;;;3.90;;
47529;SDS011;33272;51.922;7.730;2023-10-19T08:39:14;5.30;;;4.00;;
47529;SDS011;33272;51.922;7.730;2023-10-19T08:41:43;4.80;;;3.73;;
47529;SDS011;33272;51.922;7.730;2023-10-19T08:44:11;4.07;;;3.53;;
47529;SDS011;33272;51.922;7.730;2023-10-19T08:46:41;5.57;;;3.93;;
47529;SDS011;33272;51.922;7.730;2023-10-19T08:49:11;5.73;;;3.73;;
47529;SDS011;33272;51.922;7.730;2023-10-19T08:51:41;13.03;;;3.53;;
47529;SDS011;33272;51.922;7.730;2023-10-19T08:54:11;3.87;;;3.47;;
47529;SDS011;33272;51.922;7.730;2023-10-19T08:56:40;4.73;;;3.20;;
47529;SDS011;33272;51.922;7.730;2023-10-19T08:59:08;5.60;;;3.40;;
47529;SDS011;33272;51.922;7.730;2023-10-19T09:01:36;5.57;;;3.80;;
47529;SDS011;33272;51.922;7.730;2023-10-19T09:04:03;3.53;;;2.97;;
47529;SDS011;33272;51.922;7.730;2023-10-19T09:06:35;5.40;;;3.30;;
47529;SDS011;33272;51.922;7.730;2023-10-19T09:09:06;4.50;;;3.43;;
47529;SDS011;33272;51.922;7.730;2023-10-19T09:11:38;5.03;;;3.33;;
47529;SDS011;33272;51.922;7.730;2023-10-19T09:14:07;5.53;;;3.67;;
47529;SDS011;33272;51.922;7.730;2023-10-19T09:16:34;5.63;;;3.67;;
47529;SDS011;33272;51.922;7.730;2023-10-19T09:19:02;5.90;;;3.37;;
47529;SDS011;33272;51.922;7.730;2023-10-19T09:21:29;3.93;;;3.13;;
47529;SDS011;33272;51.922;7.730;2023-10-19T09:23:59;4.60;;;3.40;;
47529;SDS011;33272;51.922;7.730;2023-10-19T09:26:26;3.80;;;3.30;;
47529;SDS011;33272;51.922;7.730;2023-10-19T09:28:53;4.83;;;3.27;;
47529;SDS011;33272;51.922;7.730;2023-10-19T09:31:21;4.40;;;3.37;;
47529;SDS011;33272;51.922;7.730;2023-10-19T09:33:49;6.70;;;3.10;;
47529;SDS011;33272;51.922;7.730;2023-10-19T09:36:18;5.40;;;3.47;;
47529;SDS011;33272;51.922;7.730;2023-10-19T09:38:48;4.33;;;3.17;;
47529;SDS011;33272;51.922;7.730;2023-10-19T09:41:18;5.83;;;3.07;;
47529;SDS011;33272;51.922;7.730;2023-10-19T09:43:48;3.33;;;2.87;;
47529;SDS011;33272;51.922;7.730;2023-10-19T09:46:20;4.77;;;3.53;;
47529;SDS011;33272;51.922;7.730;2023-10-19T09:48:50;4.77;;;3.37;;
47529;SDS011;33272;51.922;7.730;2023-10-19T09:51:17;4.43;;;3.33;;
47529;SDS011;33272;51.922;7.730;2023-10-19T09:53:48;5.70;;;3.20;;
47529;SDS011;33272;51.922;7.730;2023-10-19T09:56:24;3.63;;;2.40;;
47529;SDS011;33272;51.922;7.730;2023-10-19T09:58:59;3.23;;;2.87;;
47529;SDS011;33272;51.922;7.730;2023-10-19T10:04:34;4.60;;;3.30;;
47529;SDS011;33272;51.922;7.730;2023-10-19T10:07:02;4.70;;;3.20;;
47529;SDS011;33272;51.922;7.730;2023-10-19T10:09:32;4.40;;;2.97;;
47529;SDS011;33272;51.922;7.730;2023-10-19T10:12:17;5.30;;;2.67;;
47529;SDS011;33272;51.922;7.730;2023-10-19T10:14:54;4.87;;;2.80;;
47529;SDS011;33272;51.922;7.730;2023-10-19T10:17:27;4.43;;;3.10;;
47529;SDS011;33272;51.922;7.730;2023-10-19T10:23:16;4.97;;;2.90;;
47529;SDS011;33272;51.922;7.730;2023-10-19T10:25:51;4.10;;;2.90;;
47529;SDS011;33272;51.922;7.730;2023-10-19T10:28:21;4.10;;;2.90;;
47529;SDS011;33272;51.922;7.730;2023-10-19T10:31:08;3.80;;;3.10;;
47529;SDS011;33272;51.922;7.730;2023-10-19T10:33:46;7.70;;;3.33;;
47529;SDS011;33272;51.922;7.730;2023-10-19T10:36:15;5.23;;;2.80;;
47529;SDS011;33272;51.922;7.730;2023-10-19T10:38:43;4.50;;;3.27;;
47529;SDS011;33272;51.922;7.730;2023-10-19T10:41:12;5.00;;;3.00;;
47529;SDS011;33272;51.922;7.730;2023-10-19T10:43:50;3.50;;;2.50;;
47529;SDS011;33272;51.922;7.730;2023-10-19T10:46:19;3.50;;;2.47;;
47529;SDS011;33272;51.922;7.730;2023-10-19T10:48:48;4.27;;;2.70;;
47529;SDS011;33272;51.922;7.730;2023-10-19T10:51:17;3.23;;;2.73;;
47529;SDS011;33272;51.922;7.730;2023-10-19T10:53:47;4.03;;;2.57;;
47529;SDS011;33272;51.922;7.730;2023-10-19T10:56:18;4.33;;;2.50;;
47529;SDS011;33272;51.922;7.730;2023-10-19T10:58:46;4.43;;;2.50;;
47529;SDS011;33272;51.922;7.730;2023-10-19T11:01:15;5.10;;;2.67;;
47529;SDS011;33272;51.922;7.730;2023-10-19T11:04:05;5.90;;;2.87;;
47529;SDS011;33272;51.922;7.730;2023-10-19T11:06:32;4.67;;;2.63;;
47529;SDS011;33272;51.922;7.730;2023-10-19T11:09:11;3.60;;;2.00;;
47529;SDS011;33272;51.922;7.730;2023-10-19T11:11:43;5.57;;;2.07;;
47529;SDS011;33272;51.922;7.730;2023-10-19T11:14:10;2.97;;;2.07;;
47529;SDS011;33272;51.922;7.730;2023-10-19T11:16:39;3.83;;;2.23;;
47529;SDS011;33272;51.922;7.730;2023-10-19T11:19:08;5.53;;;2.27;;
47529;SDS011;33272;51.922;7.730;2023-10-19T11:21:35;6.07;;;2.80;;
47529;SDS011;33272;51.922;7.730;2023-10-19T11:24:03;4.47;;;2.20;;
47529;SDS011;33272;51.922;7.730;2023-10-19T11:26:37;4.30;;;2.10;;
47529;SDS011;33272;51.922;7.730;2023-10-19T11:29:06;4.73;;;2.00;;
47529;SDS011;33272;51.922;7.730;2023-10-19T11:31:35;4.93;;;2.53;;
47529;SDS011;33272;51.922;7.730;2023-10-19T11:34:06;3.30;;;2.10;;
47529;SDS011;33272;51.922;7.730;2023-10-19T11:36:33;4.33;;;2.20;;
47529;SDS011;33272;51.922;7.730;2023-10-19T11:39:00;4.47;;;2.07;;
47529;SDS011;33272;51.922;7.730;2023-10-19T11:41:29;4.37;;;2.17;;
47529;SDS011;33272;51.922;7.730;2023-10-19T11:43:56;4.80;;;2.70;;
47529;SDS011;33272;51.922;7.730;2023-10-19T11:46:23;4.63;;;2.77;;
47529;SDS011;33272;51.922;7.730;2023-10-19T11:48:51;3.93;;;2.20;;
47529;SDS011;33272;51.922;7.730;2023-10-19T11:51:19;6.83;;;2.77;;
47529;SDS011;33272;51.922;7.730;2023-10-19T11:53:46;4.57;;;2.30;;
47529;SDS011;33272;51.922;7.730;2023-10-19T11:56:13;5.07;;;2.40;;
47529;SDS011;33272;51.922;7.730;2023-10-19T11:58:41;6.50;;;2.27;;
47529;SDS011;33272;51.922;7.730;2023-10-19T12:01:12;4.00;;;2.07;;
47529;SDS011;33272;51.922;7.730;2023-10-19T12:03:39;3.50;;;2.40;;
47529;SDS011;33272;51.922;7.730;2023-10-19T12:06:08;5.27;;;2.63;;
47529;SDS011;33272;51.922;7.730;2023-10-19T12:08:37;5.70;;;2.80;;
47529;SDS011;33272;51.922;7.730;2023-10-19T12:11:07;3.63;;;2.10;;
47529;SDS011;33272;51.922;7.730;2023-10-19T12:13:40;5.50;;;2.73;;
47529;SDS011;33272;51.922;7.730;2023-10-19T12:16:08;5.30;;;2.17;;
47529;SDS011;33272;51.922;7.730;2023-10-19T12:18:37;3.63;;;2.10;;
47529;SDS011;33272;51.922;7.730;2023-10-19T12:21:04;2.87;;;1.80;;
47529;SDS011;33272;51.922;7.730;2023-10-19T12:23:38;4.33;;;2.50;;
47529;SDS011;33272;51.922;7.730;2023-10-19T12:26:05;3.33;;;2.10;;
47529;SDS011;33272;51.922;7.730;2023-10-19T12:28:36;4.07;;;2.10;;
47529;SDS011;33272;51.922;7.730;2023-10-19T12:31:04;3.73;;;1.93;;
47529;SDS011;33272;51.922;7.730;2023-10-19T12:33:33;5.70;;;2.10;;
47529;SDS011;33272;51.922;7.730;2023-10-19T12:36:00;5.63;;;2.00;;
47529;SDS011;33272;51.922;7.730;2023-10-19T12:38:48;3.30;;;1.80;;
47529;SDS011;33272;51.922;7.730;2023-10-19T12:41:16;5.83;;;2.33;;
47529;SDS011;33272;51.922;7.730;2023-10-19T12:43:43;5.10;;;2.07;;
47529;SDS011;33272;51.922;7.730;2023-10-19T12:46:11;3.50;;;2.07;;
47529;SDS011;33272;51.922;7.730;2023-10-19T12:48:39;3.97;;;2.23;;
47529;SDS011;33272;51.922;7.730;2023-10-19T12:51:06;4.93;;;2.10;;
47529;SDS011;33272;51.922;7.730;2023-10-19T12:53:34;4.27;;;2.43;;
47529;SDS011;33272;51.922;7.730;2023-10-19T12:56:03;4.90;;;2.20;;
47529;SDS011;33272;51.922;7.730;2023-10-19T12:58:31;3.97;;;1.83;;
47529;SDS011;33272;51.922;7.730;2023-10-19T13:00:58;4.83;;;2.30;;
47529;SDS011;33272;51.922;7.730;2023-10-19T13:03:25;4.77;;;2.03;;
47529;SDS011;33272;51.922;7.730;2023-10-19T13:05:56;5.07;;;2.53;;
47529;SDS011;33272;51.922;7.730;2023-10-19T13:08:24;5.40;;;2.20;;
47529;SDS011;33272;51.922;7.730;2023-10-19T13:10:52;4.03;;;1.93;;
47529;SDS011;33272;51.922;7.730;2023-10-19T13:13:22;6.00;;;2.23;;
47529;SDS011;33272;51.922;7.730;2023-10-19T13:15:49;4.30;;;2.50;;
47529;SDS011;33272;51.922;7.730;2023-10-19T13:18:18;3.30;;;2.10;;
47529;SDS011;33272;51.922;7.730;2023-10-19T13:20:46;5.50;;;2.20;;
47529;SDS011;33272;51.922;7.730;2023-10-19T13:23:14;3.90;;;1.90;;
47529;SDS011;33272;51.922;7.730;2023-10-19T13:25:42;4.57;;;2.20;;
47529;SDS011;33272;51.922;7.730;2023-10-19T13:28:15;6.27;;;2.10;;
47529;SDS011;33272;51.922;7.730;2023-10-19T13:30:47;3.43;;;2.20;;
47529;SDS011;33272;51.922;7.730;2023-10-19T13:33:18;3.73;;;2.17;;
47529;SDS011;33272;51.922;7.730;2023-10-19T13:35:56;4.27;;;2.40;;
47529;SDS011;33272;51.922;7.730;2023-10-19T13:38:26;2.63;;;1.80;;
47529;SDS011;33272;51.922;7.730;2023-10-19T13:40:57;4.97;;;2.03;;
47529;SDS011;33272;51.922;7.730;2023-10-19T13:43:26;4.13;;;2.07;;
47529;SDS011;33272;51.922;7.730;2023-10-19T13:45:55;3.07;;;1.90;;
47529;SDS011;33272;51.922;7.730;2023-10-19T13:48:22;4.10;;;1.97;;
47529;SDS011;33272;51.922;7.730;2023-10-19T13:50:49;7.00;;;2.00;;
47529;SDS011;33272;51.922;7.730;2023-10-19T13:53:18;4.40;;;2.10;;
47529;SDS011;33272;51.922;7.730;2023-10-19T13:55:48;4.50;;;2.17;;
47529;SDS011;33272;51.922;7.730;2023-10-19T13:58:15;6.20;;;2.00;;
47529;SDS011;33272;51.922;7.730;2023-10-19T14:00:42;7.17;;;1.93;;
47529;SDS011;33272;51.922;7.730;2023-10-19T14:03:12;7.27;;;2.70;;
47529;SDS011;33272;51.922;7.730;2023-10-19T14:05:40;5.37;;;1.80;;
47529;SDS011;33272;51.922;7.730;2023-10-19T14:08:12;4.13;;;2.40;;
47529;SDS011;33272;51.922;7.730;2023-10-19T14:10:41;2.60;;;1.47;;
47529;SDS011;33272;51.922;7.730;2023-10-19T14:13:08;5.67;;;1.90;;
47529;SDS011;33272;51.922;7.730;2023-10-19T14:15:36;4.40;;;2.10;;
47529;SDS011;33272;51.922;7.730;2023-10-19T14:18:04;7.70;;;2.40;;
47529;SDS011;33272;51.922;7.730;2023-10-19T14:20:33;4.00;;;2.00;;
47529;SDS011;33272;51.922;7.730;2023-10-19T14:23:03;6.43;;;2.20;;
47529;SDS011;33272;51.922;7.730;2023-10-19T14:25:31;6.53;;;2.37;;
47529;SDS011;33272;51.922;7.730;2023-10-19T14:28:02;5.43;;;1.90;;
47529;SDS011;33272;51.922;7.730;2023-10-19T14:30:31;6.33;;;2.40;;
47529;SDS011;33272;51.922;7.730;2023-10-19T14:32:59;5.70;;;1.80;;
47529;SDS011;33272;51.922;7.730;2023-10-19T14:35:26;4.10;;;2.00;;
47529;SDS011;33272;51.922;7.730;2023-10-19T14:37:55;2.93;;;2.10;;
47529;SDS011;33272;51.922;7.730;2023-10-19T14:40:24;3.90;;;1.77;;
47529;SDS011;33272;51.922;7.730;2023-10-19T14:42:53;3.83;;;2.13;;
47529;SDS011;33272;51.922;7.730;2023-10-19T14:45:22;6.47;;;2.80;;
47529;SDS011;33272;51.922;7.730;2023-10-19T14:47:53;5.80;;;2.20;;
47529;SDS011;33272;51.922;7.730;2023-10-19T14:50:22;6.33;;;2.50;;
47529;SDS011;33272;51.922;7.730;2023-10-19T14:52:52;5.63;;;2.37;;
47529;SDS011;33272;51.922;7.730;2023-10-19T14:55:22;4.07;;;2.07;;
47529;SDS011;33272;51.922;7.730;2023-10-19T14:57:50;5.47;;;2.30;;
47529;SDS011;33272;51.922;7.730;2023-10-19T15:00:19;3.23;;;2.33;;
47529;SDS011;33272;51.922;7.730;2023-10-19T15:02:58;7.20;;;2.50;;
47529;SDS011;33272;51.922;7.730;2023-10-19T15:05:32;5.80;;;2.13;;
47529;SDS011;33272;51.922;7.730;2023-10-19T15:08:00;5.97;;;2.20;;
47529;SDS011;33272;51.922;7.730;2023-10-19T15:10:31;6.83;;;2.27;;
47529;SDS011;33272;51.922;7.730;2023-10-19T15:12:58;3.07;;;2.60;;